PWSweather.com
Personal Weather Stations
Station Observations
RAINMAN1
Jacksonville, FL 32224

Jacksonville, FL 32224

Lat: 30.28041649, Lon: -81.46911621

Elevation: 26

Station Type: Tycon TP1080WC

Latest ConditionsUpdated 2:25:02 AM EDT Saturday, Apr 25, 2015
Currently Today's Max Today's Min Today's Average
Temperature 64.0°F17.8°C 66.0°F18.9°C 63.9°F17.7°C 64.7°F18.2°C
Dew Point 63.8°F17.7°C 65.8°F18.8°C 63.6°F17.6°C 64.5°F18.1°C
Winds 0.7 mph E1.1 kmh E 1.8 mph S2.9 kmh S - 0.6 mph 1.0 kmh
Wind Gusts 1.6 mph2.6 kmh 3.1 mph5.0 kmh - -
Humidity 99% 99% 99% 99%
Pressure 29.63 in1003.4 mb 29.68 in1005.1 mb 29.63 in1003.4 mb -
Hour Temp Dew Point Humidity Winds Wind Gusts Pressure Precip Precip Rate Daily Precip Total
02:25 AM 64.0°F17.8°C 63.8°F17.7°C 99% 0.7 mph E1.1 kmh E 1.6 mph2.6 kmh 29.63 in1003.4 mb 0.00 in0.0 mm 0.00 in0.0 mm 0.00 in0.0 mm
02:20 AM 63.9°F17.7°C 63.6°F17.6°C 99% 0.1 mph W0.2 kmh W 0.7 mph1.1 kmh 29.64 in1003.7 mb 0.00 in0.0 mm 0.00 in0.0 mm 0.00 in0.0 mm
02:15 AM 64.0°F17.8°C 63.8°F17.7°C 99% 0.2 mph WSW0.3 kmh WSW 1.6 mph2.6 kmh 29.64 in1003.7 mb 0.00 in0.0 mm 0.00 in0.0 mm 0.00 in0.0 mm
02:10 AM 64.2°F17.9°C 64.0°F17.8°C 99% 0.9 mph SW1.4 kmh SW 1.6 mph2.6 kmh 29.64 in1003.7 mb 0.00 in0.0 mm 0.00 in0.0 mm 0.00 in0.0 mm
02:05 AM 64.2°F17.9°C 64.0°F17.8°C 99% 1.6 mph SW2.6 kmh SW 1.6 mph2.6 kmh 29.64 in1003.7 mb 0.00 in0.0 mm 0.00 in0.0 mm 0.00 in0.0 mm
02:00 AM 64.4°F18.0°C 64.1°F17.8°C 99% 1.4 mph SSW2.3 kmh SSW 1.6 mph2.6 kmh 29.64 in1003.7 mb 0.00 in0.0 mm 0.00 in0.0 mm 0.00 in0.0 mm
01:55 AM 64.4°F18.0°C 64.1°F17.8°C 99% 1.4 mph S2.3 kmh S 2.2 mph3.5 kmh 29.64 in1003.7 mb 0.00 in0.0 mm 0.00 in0.0 mm 0.00 in0.0 mm
01:50 AM 64.4°F18.0°C 64.1°F17.8°C 99% 1.8 mph S2.9 kmh S 3.1 mph5.0 kmh 29.64 in1003.7 mb 0.00 in0.0 mm 0.00 in0.0 mm 0.00 in0.0 mm
01:45 AM 64.4°F18.0°C 64.1°F17.8°C 99% 1.2 mph S1.9 kmh S 3.1 mph5.0 kmh 29.64 in1003.7 mb 0.00 in0.0 mm 0.00 in0.0 mm 0.00 in0.0 mm
01:40 AM 64.4°F18.0°C 64.1°F17.8°C 99% 1.0 mph SE1.6 kmh SE 1.6 mph2.6 kmh 29.64 in1003.7 mb 0.00 in0.0 mm 0.00 in0.0 mm 0.00 in0.0 mm
01:35 AM 64.6°F18.1°C 64.3°F17.9°C 99% 1.1 mph ESE1.8 kmh ESE 1.6 mph2.6 kmh 29.65 in1004.1 mb 0.00 in0.0 mm 0.00 in0.0 mm 0.00 in0.0 mm
01:30 AM 64.4°F18.0°C 64.1°F17.8°C 99% 0.4 mph ENE0.6 kmh ENE 1.6 mph2.6 kmh 29.66 in1004.4 mb 0.00 in0.0 mm 0.00 in0.0 mm 0.00 in0.0 mm
01:25 AM 64.6°F18.1°C 64.3°F17.9°C 99% Calm Calm -- 29.66 in1004.4 mb 0.00 in0.0 mm 0.00 in0.0 mm 0.00 in0.0 mm
01:20 AM 64.8°F18.2°C 64.5°F18.1°C 99% 0.5 mph SW0.8 kmh SW 1.6 mph2.6 kmh 29.66 in1004.4 mb 0.00 in0.0 mm 0.00 in0.0 mm 0.00 in0.0 mm
01:15 AM 64.8°F18.2°C 64.5°F18.1°C 99% 1.1 mph SW1.8 kmh SW 2.2 mph3.5 kmh 29.66 in1004.4 mb 0.00 in0.0 mm 0.00 in0.0 mm 0.00 in0.0 mm
01:10 AM 64.6°F18.1°C 64.3°F17.9°C 99% 1.0 mph SW1.6 kmh SW 2.2 mph3.5 kmh 29.66 in1004.4 mb 0.00 in0.0 mm 0.00 in0.0 mm 0.00 in0.0 mm
01:05 AM 64.6°F18.1°C 64.3°F17.9°C 99% 0.4 mph S0.6 kmh S 0.7 mph1.1 kmh 29.66 in1004.4 mb 0.00 in0.0 mm 0.00 in0.0 mm 0.00 in0.0 mm
01:00 AM 64.6°F18.1°C 64.3°F17.9°C 99% 0.2 mph SE0.3 kmh SE 0.7 mph1.1 kmh 29.67 in1004.7 mb 0.00 in0.0 mm 0.00 in0.0 mm 0.00 in0.0 mm
12:55 AM 64.6°F18.1°C 64.3°F17.9°C 99% 0.1 mph E0.2 kmh E 0.7 mph1.1 kmh 29.67 in1004.7 mb 0.00 in0.0 mm 0.00 in0.0 mm 0.00 in0.0 mm
12:50 AM 64.6°F18.1°C 64.3°F17.9°C 99% 0.1 mph E0.2 kmh E 0.7 mph1.1 kmh 29.67 in1004.7 mb 0.00 in0.0 mm 0.00 in0.0 mm 0.00 in0.0 mm
12:45 AM 64.8°F18.2°C 64.5°F18.1°C 99% 0.1 mph E0.2 kmh E 0.7 mph1.1 kmh 29.68 in1005.1 mb 0.00 in0.0 mm 0.00 in0.0 mm 0.00 in0.0 mm
12:40 AM 64.9°F18.3°C 64.7°F18.2°C 99% 0.1 mph E0.2 kmh E 0.7 mph1.1 kmh 29.67 in1004.7 mb 0.00 in0.0 mm 0.00 in0.0 mm 0.00 in0.0 mm
12:35 AM 65.1°F18.4°C 64.9°F18.3°C 99% 0.1 mph E0.2 kmh E 0.7 mph1.1 kmh 29.66 in1004.4 mb 0.00 in0.0 mm 0.00 in0.0 mm 0.00 in0.0 mm
12:30 AM 64.9°F18.3°C 64.7°F18.2°C 99% 0.1 mph E0.2 kmh E 0.7 mph1.1 kmh 29.66 in1004.4 mb 0.00 in0.0 mm 0.00 in0.0 mm 0.00 in0.0 mm
12:25 AM 65.1°F18.4°C 64.9°F18.3°C 99% 0.6 mph WSW1.0 kmh WSW 1.6 mph2.6 kmh 29.67 in1004.7 mb 0.00 in0.0 mm 0.00 in0.0 mm 0.00 in0.0 mm
12:20 AM 65.3°F18.5°C 65.0°F18.3°C 99% 1.0 mph WSW1.6 kmh WSW 1.6 mph2.6 kmh 29.67 in1004.7 mb 0.00 in0.0 mm 0.00 in0.0 mm 0.00 in0.0 mm
12:15 AM 65.3°F18.5°C 65.0°F18.3°C 99% 0.8 mph WNW1.3 kmh WNW 1.6 mph2.6 kmh 29.67 in1004.7 mb 0.00 in0.0 mm 0.00 in0.0 mm 0.00 in0.0 mm
12:10 AM 65.7°F18.7°C 65.4°F18.6°C 99% 0.6 mph NW1.0 kmh NW 1.6 mph2.6 kmh 29.67 in1004.7 mb 0.00 in0.0 mm 0.00 in0.0 mm 0.00 in0.0 mm
12:05 AM 66.0°F18.9°C 65.8°F18.8°C 99% 0.5 mph NW0.8 kmh NW 0.7 mph1.1 kmh 29.67 in1004.7 mb 0.00 in0.0 mm 0.00 in0.0 mm 0.00 in0.0 mm
12:00 AM 66.0°F18.9°C 65.8°F18.8°C 99% 0.3 mph N0.5 kmh N 0.7 mph1.1 kmh 29.67 in1004.7 mb 0.00 in0.0 mm 0.00 in0.0 mm 0.00 in0.0 mm